PWSweather.com
Personal Weather Stations
Station Observations
WD4JKH
Forsyth, GA 31029

Forsyth, GA 31029

Lat: 33.033225, Lon: -83.927995

Elevation: 709

Station Type: Davis Vantage VUE

High Low Average
Temperature 93.4°F34.1°C 71.2°F21.8°C 82.3°F27.9°C
Dew Point 72.6°F22.6°C 62.3°F16.8°C 68.1°F20.1°C
Winds 12.4 mph 20.0 kmh Calm Calm 3.0 mph E4.8 kmh E
Wind Gusts 23.0 mph37.0 kmh -- 9.0 mph14.5 kmh
Humidity 88% 37% 64%
Pressure 30.00 in1015.9 mb 29.86 in1011.2 mb -
Precipitation 0.00 in0.0 mm - -
Hour Temp Dew Point Humidity Winds Wind Gusts Pressure Precip Precip Rate Daily Precip Total
12:02 AM 76.7°F24.8°C 68.0°F20.0°C 74% Calm Calm 1.0 mph1.6 kmh 29.94 in1013.9 mb 0.00 in0.0 mm 0.00 in0.0 mm 0.00 in0.0 mm
12:07 AM 76.6°F24.8°C 68.2°F20.1°C 75% Calm Calm 1.0 mph1.6 kmh 29.94 in1013.9 mb 0.00 in0.0 mm 0.00 in0.0 mm 0.00 in0.0 mm
12:12 AM 76.4°F24.7°C 68.1°F20.1°C 75% Calm Calm 1.0 mph1.6 kmh 29.94 in1013.9 mb 0.00 in0.0 mm 0.00 in0.0 mm 0.00 in0.0 mm
12:17 AM 76.2°F24.6°C 67.9°F19.9°C 75% 1.0 mph NNE1.6 kmh NNE 1.0 mph1.6 kmh 29.94 in1013.9 mb 0.00 in0.0 mm 0.00 in0.0 mm 0.00 in0.0 mm
12:22 AM 76.2°F24.6°C 67.9°F19.9°C 75% 1.0 mph NNE1.6 kmh NNE 1.0 mph1.6 kmh 29.94 in1013.9 mb 0.00 in0.0 mm 0.00 in0.0 mm 0.00 in0.0 mm
12:27 AM 76.3°F24.6°C 67.8°F19.9°C 75% 1.0 mph NNE1.6 kmh NNE 1.0 mph1.6 kmh 29.94 in1013.9 mb 0.00 in0.0 mm 0.00 in0.0 mm 0.00 in0.0 mm
12:32 AM 76.2°F24.6°C 67.7°F19.8°C 75% Calm Calm 1.0 mph1.6 kmh 29.94 in1013.9 mb 0.00 in0.0 mm 0.00 in0.0 mm 0.00 in0.0 mm
12:37 AM 76.0°F24.4°C 68.0°F20.0°C 76% Calm Calm 1.0 mph1.6 kmh 29.93 in1013.5 mb 0.00 in0.0 mm 0.00 in0.0 mm 0.00 in0.0 mm
12:42 AM 75.8°F24.3°C 67.8°F19.9°C 76% Calm Calm 1.0 mph1.6 kmh 29.94 in1013.9 mb 0.00 in0.0 mm 0.00 in0.0 mm 0.00 in0.0 mm
12:47 AM 75.5°F24.2°C 67.9°F19.9°C 77% Calm Calm -- 29.93 in1013.5 mb 0.00 in0.0 mm 0.00 in0.0 mm 0.00 in0.0 mm
12:52 AM 75.4°F24.1°C 67.8°F19.9°C 77% Calm Calm -- 29.93 in1013.5 mb 0.00 in0.0 mm 0.00 in0.0 mm 0.00 in0.0 mm
12:57 AM 75.3°F24.1°C 67.7°F19.8°C 77% Calm Calm 1.0 mph1.6 kmh 29.93 in1013.5 mb 0.00 in0.0 mm 0.00 in0.0 mm 0.00 in0.0 mm
01:02 AM 75.5°F24.2°C 67.9°F19.9°C 77% Calm Calm 1.0 mph1.6 kmh 29.93 in1013.5 mb 0.00 in0.0 mm 0.00 in0.0 mm 0.00 in0.0 mm
01:07 AM 75.5°F24.2°C 67.9°F19.9°C 77% Calm Calm 1.0 mph1.6 kmh 29.94 in1013.9 mb 0.00 in0.0 mm 0.00 in0.0 mm 0.00 in0.0 mm
01:12 AM 75.5°F24.2°C 67.9°F19.9°C 77% Calm Calm 1.0 mph1.6 kmh 29.93 in1013.5 mb 0.00 in0.0 mm 0.00 in0.0 mm 0.00 in0.0 mm
01:17 AM 75.4°F24.1°C 67.8°F19.9°C 77% Calm Calm 1.0 mph1.6 kmh 29.93 in1013.5 mb 0.00 in0.0 mm 0.00 in0.0 mm 0.00 in0.0 mm
01:22 AM 75.3°F24.1°C 67.7°F19.8°C 77% Calm Calm 1.0 mph1.6 kmh 29.93 in1013.5 mb 0.00 in0.0 mm 0.00 in0.0 mm 0.00 in0.0 mm
01:27 AM 75.3°F24.1°C 68.1°F20.1°C 78% Calm Calm 1.0 mph1.6 kmh 29.93 in1013.5 mb 0.00 in0.0 mm 0.00 in0.0 mm 0.00 in0.0 mm
01:32 AM 75.3°F24.1°C 68.1°F20.1°C 78% 1.0 mph N1.6 kmh N 1.0 mph1.6 kmh 29.93 in1013.5 mb 0.00 in0.0 mm 0.00 in0.0 mm 0.00 in0.0 mm
01:37 AM 75.2°F24.0°C 68.0°F20.0°C 78% Calm Calm 1.0 mph1.6 kmh 29.93 in1013.5 mb 0.00 in0.0 mm 0.00 in0.0 mm 0.00 in0.0 mm
01:42 AM 75.2°F24.0°C 68.0°F20.0°C 78% Calm Calm 1.0 mph1.6 kmh 29.93 in1013.5 mb 0.00 in0.0 mm 0.00 in0.0 mm 0.00 in0.0 mm
01:47 AM 75.1°F23.9°C 67.9°F19.9°C 78% 1.0 mph NNW1.6 kmh NNW 1.0 mph1.6 kmh 29.93 in1013.5 mb 0.00 in0.0 mm 0.00 in0.0 mm 0.00 in0.0 mm
01:52 AM 75.0°F23.9°C 67.8°F19.9°C 78% Calm Calm 1.0 mph1.6 kmh 29.93 in1013.5 mb 0.00 in0.0 mm 0.00 in0.0 mm 0.00 in0.0 mm
01:57 AM 74.9°F23.8°C 68.1°F20.1°C 79% Calm Calm 1.0 mph1.6 kmh 29.93 in1013.5 mb 0.00 in0.0 mm 0.00 in0.0 mm 0.00 in0.0 mm
02:02 AM 74.8°F23.8°C 68.0°F20.0°C 79% 1.0 mph NNW1.6 kmh NNW 1.0 mph1.6 kmh 29.93 in1013.5 mb 0.00 in0.0 mm 0.00 in0.0 mm 0.00 in0.0 mm
02:07 AM 74.6°F23.7°C 67.8°F19.9°C 79% Calm Calm 1.0 mph1.6 kmh 29.93 in1013.5 mb 0.00 in0.0 mm 0.00 in0.0 mm 0.00 in0.0 mm
02:12 AM 74.5°F23.6°C 67.7°F19.8°C 79% Calm Calm 1.0 mph1.6 kmh 29.93 in1013.5 mb 0.00 in0.0 mm 0.00 in0.0 mm 0.00 in0.0 mm
02:16 AM 74.4°F23.6°C 67.6°F19.8°C 79% Calm Calm 1.0 mph1.6 kmh 29.93 in1013.5 mb 0.00 in0.0 mm 0.00 in0.0 mm 0.00 in0.0 mm
02:21 AM 74.3°F23.5°C 67.8°F19.9°C 80% Calm Calm -- 29.93 in1013.5 mb 0.00 in0.0 mm 0.00 in0.0 mm 0.00 in0.0 mm
02:26 AM 74.1°F23.4°C 67.6°F19.8°C 80% Calm Calm -- 29.93 in1013.5 mb 0.00 in0.0 mm 0.00 in0.0 mm 0.00 in0.0 mm
02:31 AM 74.2°F23.4°C 67.7°F19.8°C 80% Calm Calm 1.0 mph1.6 kmh 29.93 in1013.5 mb 0.00 in0.0 mm 0.00 in0.0 mm 0.00 in0.0 mm
02:36 AM 74.3°F23.5°C 67.8°F19.9°C 80% Calm Calm 1.0 mph1.6 kmh 29.93 in1013.5 mb 0.00 in0.0 mm 0.00 in0.0 mm 0.00 in0.0 mm
02:41 AM 74.2°F23.4°C 67.7°F19.8°C 80% Calm Calm 1.0 mph1.6 kmh 29.93 in1013.5 mb 0.00 in0.0 mm 0.00 in0.0 mm 0.00 in0.0 mm
02:46 AM 74.0°F23.3°C 67.5°F19.7°C 80% Calm Calm 1.0 mph1.6 kmh 29.92 in1013.2 mb 0.00 in0.0 mm 0.00 in0.0 mm 0.00 in0.0 mm
02:51 AM 73.9°F23.3°C 67.8°F19.9°C 81% 1.0 mph NNW1.6 kmh NNW 1.0 mph1.6 kmh 29.92 in1013.2 mb 0.00 in0.0 mm 0.00 in0.0 mm 0.00 in0.0 mm
02:56 AM 73.8°F23.2°C 67.6°F19.8°C 81% 1.3 mph N2.1 kmh N 2.0 mph3.2 kmh 29.93 in1013.5 mb 0.00 in0.0 mm 0.00 in0.0 mm 0.00 in0.0 mm
03:01 AM 73.8°F23.2°C 67.6°F19.8°C 81% 1.4 mph N2.3 kmh N 2.0 mph3.2 kmh 29.93 in1013.5 mb 0.00 in0.0 mm 0.00 in0.0 mm 0.00 in0.0 mm
03:06 AM 73.6°F23.1°C 67.8°F19.9°C 82% 1.3 mph N2.1 kmh N 2.0 mph3.2 kmh 29.93 in1013.5 mb 0.00 in0.0 mm 0.00 in0.0 mm 0.00 in0.0 mm
03:11 AM 73.5°F23.1°C 67.7°F19.8°C 82% 1.0 mph N1.6 kmh N 2.0 mph3.2 kmh 29.93 in1013.5 mb 0.00 in0.0 mm 0.00 in0.0 mm 0.00 in0.0 mm
03:16 AM 73.4°F23.0°C 67.9°F19.9°C 83% 1.6 mph NNW2.6 kmh NNW 3.0 mph4.8 kmh 29.93 in1013.5 mb 0.00 in0.0 mm 0.00 in0.0 mm 0.00 in0.0 mm
03:21 AM 73.3°F22.9°C 67.8°F19.9°C 83% 1.1 mph 1.8 kmh 3.0 mph4.8 kmh 29.93 in1013.5 mb 0.00 in0.0 mm 0.00 in0.0 mm 0.00 in0.0 mm
03:26 AM 73.2°F22.9°C 67.8°F19.9°C 83% 1.0 mph NW1.6 kmh NW 3.0 mph4.8 kmh 29.93 in1013.5 mb 0.00 in0.0 mm 0.00 in0.0 mm 0.00 in0.0 mm
03:31 AM 73.1°F22.8°C 68.0°F20.0°C 84% 1.0 mph NNE1.6 kmh NNE 3.0 mph4.8 kmh 29.93 in1013.5 mb 0.00 in0.0 mm 0.00 in0.0 mm 0.00 in0.0 mm
03:36 AM 73.1°F22.8°C 68.0°F20.0°C 84% 1.0 mph NNW1.6 kmh NNW 3.0 mph4.8 kmh 29.93 in1013.5 mb 0.00 in0.0 mm 0.00 in0.0 mm 0.00 in0.0 mm
03:41 AM 73.1°F22.8°C 68.0°F20.0°C 84% 1.0 mph NNE1.6 kmh NNE 3.0 mph4.8 kmh 29.93 in1013.5 mb 0.00 in0.0 mm 0.00 in0.0 mm 0.00 in0.0 mm
03:46 AM 72.9°F22.7°C 67.8°F19.9°C 84% 1.5 mph NNE2.4 kmh NNE 2.0 mph3.2 kmh 29.94 in1013.9 mb 0.00 in0.0 mm 0.00 in0.0 mm 0.00 in0.0 mm
03:51 AM 72.8°F22.7°C 67.7°F19.8°C 84% 1.0 mph NNE1.6 kmh NNE 2.0 mph3.2 kmh 29.94 in1013.9 mb 0.00 in0.0 mm 0.00 in0.0 mm 0.00 in0.0 mm
03:56 AM 72.7°F22.6°C 68.0°F20.0°C 85% 1.0 mph NW1.6 kmh NW 2.0 mph3.2 kmh 29.94 in1013.9 mb 0.00 in0.0 mm 0.00 in0.0 mm 0.00 in0.0 mm
04:01 AM 72.6°F22.6°C 67.9°F19.9°C 85% 1.0 mph NNE1.6 kmh NNE 2.0 mph3.2 kmh 29.94 in1013.9 mb 0.00 in0.0 mm 0.00 in0.0 mm 0.00 in0.0 mm
04:06 AM 72.6°F22.6°C 67.9°F19.9°C 85% 1.9 mph ENE3.1 kmh ENE 3.0 mph4.8 kmh 29.94 in1013.9 mb 0.00 in0.0 mm 0.00 in0.0 mm 0.00 in0.0 mm
04:11 AM 73.0°F22.8°C 67.9°F19.9°C 84% 1.5 mph NE2.4 kmh NE 3.0 mph4.8 kmh 29.94 in1013.9 mb 0.00 in0.0 mm 0.00 in0.0 mm 0.00 in0.0 mm
04:16 AM 73.1°F22.8°C 68.0°F20.0°C 84% 1.0 mph NNE1.6 kmh NNE 3.0 mph4.8 kmh 29.94 in1013.9 mb 0.00 in0.0 mm 0.00 in0.0 mm 0.00 in0.0 mm
04:21 AM 72.9°F22.7°C 67.8°F19.9°C 84% Calm Calm 3.0 mph4.8 kmh 29.94 in1013.9 mb 0.00 in0.0 mm 0.00 in0.0 mm 0.00 in0.0 mm
04:26 AM 72.7°F22.6°C 67.6°F19.8°C 84% 1.0 mph N1.6 kmh N 3.0 mph4.8 kmh 29.94 in1013.9 mb 0.00 in0.0 mm 0.00 in0.0 mm 0.00 in0.0 mm
04:31 AM 72.6°F22.6°C 67.9°F19.9°C 85% 1.7 mph NNE2.7 kmh NNE 4.0 mph6.4 kmh 29.94 in1013.9 mb 0.00 in0.0 mm 0.00 in0.0 mm 0.00 in0.0 mm
04:36 AM 72.6°F22.6°C 67.9°F19.9°C 85% 2.0 mph NNE3.2 kmh NNE 5.0 mph8.0 kmh 29.94 in1013.9 mb 0.00 in0.0 mm 0.00 in0.0 mm 0.00 in0.0 mm
04:41 AM 72.6°F22.6°C 67.9°F19.9°C 85% 1.3 mph NE2.1 kmh NE 5.0 mph8.0 kmh 29.94 in1013.9 mb 0.00 in0.0 mm 0.00 in0.0 mm 0.00 in0.0 mm
04:46 AM 72.5°F22.5°C 67.8°F19.9°C 85% 1.9 mph NE3.1 kmh NE 5.0 mph8.0 kmh 29.94 in1013.9 mb 0.00 in0.0 mm 0.00 in0.0 mm 0.00 in0.0 mm
04:51 AM 72.5°F22.5°C 67.8°F19.9°C 85% 1.9 mph NE3.1 kmh NE 5.0 mph8.0 kmh 29.93 in1013.5 mb 0.00 in0.0 mm 0.00 in0.0 mm 0.00 in0.0 mm
04:56 AM 72.6°F22.6°C 67.9°F19.9°C 85% 1.5 mph NE2.4 kmh NE 5.0 mph8.0 kmh 29.94 in1013.9 mb 0.00 in0.0 mm 0.00 in0.0 mm 0.00 in0.0 mm
05:01 AM 72.6°F22.6°C 67.8°F19.9°C 85% 2.1 mph NE3.4 kmh NE 5.0 mph8.0 kmh 29.94 in1013.9 mb 0.00 in0.0 mm 0.00 in0.0 mm 0.00 in0.0 mm
05:06 AM 72.5°F22.5°C 67.7°F19.8°C 85% 2.0 mph NE3.2 kmh NE 5.0 mph8.0 kmh 29.93 in1013.5 mb 0.00 in0.0 mm 0.00 in0.0 mm 0.00 in0.0 mm
05:11 AM 72.8°F22.7°C 67.7°F19.8°C 84% 1.6 mph NE2.6 kmh NE 5.0 mph8.0 kmh 29.94 in1013.9 mb 0.00 in0.0 mm 0.00 in0.0 mm 0.00 in0.0 mm
05:16 AM 73.0°F22.8°C 67.9°F19.9°C 84% 1.9 mph NE3.1 kmh NE 5.0 mph8.0 kmh 29.94 in1013.9 mb 0.00 in0.0 mm 0.00 in0.0 mm 0.00 in0.0 mm
05:21 AM 73.0°F22.8°C 67.9°F19.9°C 84% 1.7 mph NNE2.7 kmh NNE 5.0 mph8.0 kmh 29.94 in1013.9 mb 0.00 in0.0 mm 0.00 in0.0 mm 0.00 in0.0 mm
05:26 AM 72.8°F22.7°C 67.7°F19.8°C 84% 1.6 mph NE2.6 kmh NE 4.0 mph6.4 kmh 29.94 in1013.9 mb 0.00 in0.0 mm 0.00 in0.0 mm 0.00 in0.0 mm
05:31 AM 72.3°F22.4°C 67.5°F19.7°C 85% 3.2 mph NE5.1 kmh NE 4.0 mph6.4 kmh 29.94 in1013.9 mb 0.00 in0.0 mm 0.00 in0.0 mm 0.00 in0.0 mm
05:36 AM 72.0°F22.2°C 67.6°F19.8°C 86% 1.3 mph NE2.1 kmh NE 4.0 mph6.4 kmh 29.95 in1014.2 mb 0.00 in0.0 mm 0.00 in0.0 mm 0.00 in0.0 mm
05:41 AM 71.8°F22.1°C 67.4°F19.7°C 86% 1.4 mph NE2.3 kmh NE 4.0 mph6.4 kmh 29.95 in1014.2 mb 0.00 in0.0 mm 0.00 in0.0 mm 0.00 in0.0 mm
05:46 AM 71.7°F22.1°C 67.3°F19.6°C 86% 1.3 mph NE2.1 kmh NE 4.0 mph6.4 kmh 29.95 in1014.2 mb 0.00 in0.0 mm 0.00 in0.0 mm 0.00 in0.0 mm
05:51 AM 71.6°F22.0°C 67.2°F19.6°C 86% 1.8 mph NNE2.9 kmh NNE 3.0 mph4.8 kmh 29.95 in1014.2 mb 0.00 in0.0 mm 0.00 in0.0 mm 0.00 in0.0 mm
05:56 AM 71.5°F21.9°C 67.4°F19.7°C 87% Calm Calm 3.0 mph4.8 kmh 29.95 in1014.2 mb 0.00 in0.0 mm 0.00 in0.0 mm 0.00 in0.0 mm
06:01 AM 71.4°F21.9°C 67.3°F19.6°C 87% 1.0 mph NE1.6 kmh NE 3.0 mph4.8 kmh 29.96 in1014.6 mb 0.00 in0.0 mm 0.00 in0.0 mm 0.00 in0.0 mm
06:06 AM 71.4°F21.9°C 67.3°F19.6°C 87% Calm Calm 3.0 mph4.8 kmh 29.96 in1014.6 mb 0.00 in0.0 mm 0.00 in0.0 mm 0.00 in0.0 mm
06:11 AM 71.3°F21.8°C 67.2°F19.6°C 87% 1.5 mph NNE2.4 kmh NNE 3.0 mph4.8 kmh 29.96 in1014.6 mb 0.00 in0.0 mm 0.00 in0.0 mm 0.00 in0.0 mm
06:16 AM 71.3°F21.8°C 67.2°F19.6°C 87% Calm Calm 3.0 mph4.8 kmh 29.96 in1014.6 mb 0.00 in0.0 mm 0.00 in0.0 mm 0.00 in0.0 mm
06:21 AM 71.2°F21.8°C 67.1°F19.5°C 87% 1.0 mph NE1.6 kmh NE 2.0 mph3.2 kmh 29.97 in1014.9 mb 0.00 in0.0 mm 0.00 in0.0 mm 0.00 in0.0 mm
06:26 AM 71.2°F21.8°C 67.5°F19.7°C 88% 1.5 mph N2.4 kmh N 3.0 mph4.8 kmh 29.97 in1014.9 mb 0.00 in0.0 mm 0.00 in0.0 mm 0.00 in0.0 mm
06:31 AM 71.2°F21.8°C 67.5°F19.7°C 88% 1.5 mph N2.4 kmh N 4.0 mph6.4 kmh 29.97 in1014.9 mb 0.00 in0.0 mm 0.00 in0.0 mm 0.00 in0.0 mm
06:36 AM 71.2°F21.8°C 67.5°F19.7°C 88% 1.1 mph N1.8 kmh N 4.0 mph6.4 kmh 29.97 in1014.9 mb 0.00 in0.0 mm 0.00 in0.0 mm 0.00 in0.0 mm
06:41 AM 71.3°F21.8°C 67.6°F19.8°C 88% 1.7 mph NNE2.7 kmh NNE 4.0 mph6.4 kmh 29.97 in1014.9 mb 0.00 in0.0 mm 0.00 in0.0 mm 0.00 in0.0 mm
06:46 AM 71.7°F22.1°C 67.6°F19.8°C 87% 1.1 mph N1.8 kmh N 4.0 mph6.4 kmh 29.98 in1015.2 mb 0.00 in0.0 mm 0.00 in0.0 mm 0.00 in0.0 mm
06:51 AM 72.2°F22.3°C 68.1°F20.1°C 87% 1.1 mph NE1.8 kmh NE 3.0 mph4.8 kmh 29.97 in1014.9 mb 0.00 in0.0 mm 0.00 in0.0 mm 0.00 in0.0 mm
06:56 AM 72.5°F22.5°C 68.1°F20.1°C 86% 1.2 mph NNE1.9 kmh NNE 3.0 mph4.8 kmh 29.98 in1015.2 mb 0.00 in0.0 mm 0.00 in0.0 mm 0.00 in0.0 mm
07:01 AM 72.7°F22.6°C 67.9°F19.9°C 85% 1.9 mph NNE3.1 kmh NNE 3.0 mph4.8 kmh 29.98 in1015.2 mb 0.00 in0.0 mm 0.00 in0.0 mm 0.00 in0.0 mm
07:06 AM 73.0°F22.8°C 68.2°F20.1°C 85% 1.7 mph NNE2.7 kmh NNE 3.0 mph4.8 kmh 29.98 in1015.2 mb 0.00 in0.0 mm 0.00 in0.0 mm 0.00 in0.0 mm
07:11 AM 73.1°F22.8°C 68.3°F20.2°C 85% 1.7 mph NNE2.7 kmh NNE 8.0 mph12.9 kmh 29.98 in1015.2 mb 0.00 in0.0 mm 0.00 in0.0 mm 0.00 in0.0 mm
07:15 AM 73.4°F23.0°C 68.6°F20.3°C 85% 1.9 mph NNE3.1 kmh NNE 8.0 mph12.9 kmh 29.98 in1015.2 mb 0.00 in0.0 mm 0.00 in0.0 mm 0.00 in0.0 mm
07:20 AM 73.7°F23.2°C 68.6°F20.3°C 84% 1.2 mph NNE1.9 kmh NNE 8.0 mph12.9 kmh 29.98 in1015.2 mb 0.00 in0.0 mm 0.00 in0.0 mm 0.00 in0.0 mm
07:25 AM 73.8°F23.2°C 68.7°F20.4°C 84% 1.5 mph NE2.4 kmh NE 8.0 mph12.9 kmh 29.98 in1015.2 mb 0.00 in0.0 mm 0.00 in0.0 mm 0.00 in0.0 mm
07:30 AM 74.0°F23.3°C 68.9°F20.5°C 84% 1.8 mph NE2.9 kmh NE 7.0 mph11.3 kmh 29.98 in1015.2 mb 0.00 in0.0 mm 0.00 in0.0 mm 0.00 in0.0 mm
07:35 AM 74.1°F23.4°C 68.7°F20.4°C 83% 2.7 mph NNE4.3 kmh NNE 7.0 mph11.3 kmh 29.98 in1015.2 mb 0.00 in0.0 mm 0.00 in0.0 mm 0.00 in0.0 mm
07:40 AM 74.3°F23.5°C 69.2°F20.7°C 84% 1.9 mph NNE3.1 kmh NNE 7.0 mph11.3 kmh 29.98 in1015.2 mb 0.00 in0.0 mm 0.00 in0.0 mm 0.00 in0.0 mm
07:45 AM 74.5°F23.6°C 69.1°F20.6°C 83% 3.0 mph NNE4.8 kmh NNE 7.0 mph11.3 kmh 29.98 in1015.2 mb 0.00 in0.0 mm 0.00 in0.0 mm 0.00 in0.0 mm
07:50 AM 74.6°F23.7°C 69.1°F20.6°C 83% 2.1 mph NNE3.4 kmh NNE 7.0 mph11.3 kmh 29.99 in1015.6 mb 0.00 in0.0 mm 0.00 in0.0 mm 0.00 in0.0 mm
07:55 AM 74.7°F23.7°C 69.3°F20.7°C 83% 4.8 mph NE7.7 kmh NE 9.0 mph14.5 kmh 29.99 in1015.6 mb 0.00 in0.0 mm 0.00 in0.0 mm 0.00 in0.0 mm
08:00 AM 75.2°F24.0°C 70.1°F21.2°C 84% 2.6 mph NE4.2 kmh NE 9.0 mph14.5 kmh 29.99 in1015.6 mb 0.00 in0.0 mm 0.00 in0.0 mm 0.00 in0.0 mm
08:05 AM 75.3°F24.1°C 69.8°F21.0°C 83% 3.7 mph NE6.0 kmh NE 9.0 mph14.5 kmh 30.00 in1015.9 mb 0.00 in0.0 mm 0.00 in0.0 mm 0.00 in0.0 mm
08:10 AM 75.2°F24.0°C 69.7°F20.9°C 83% 4.7 mph NE7.6 kmh NE 9.0 mph14.5 kmh 29.99 in1015.6 mb 0.00 in0.0 mm 0.00 in0.0 mm 0.00 in0.0 mm
08:15 AM 75.3°F24.1°C 69.8°F21.0°C 83% 6.6 mph NE10.6 kmh NE 11.0 mph17.7 kmh 30.00 in1015.9 mb 0.00 in0.0 mm 0.00 in0.0 mm 0.00 in0.0 mm
08:20 AM 75.8°F24.3°C 70.3°F21.3°C 83% 3.3 mph NE5.3 kmh NE 11.0 mph17.7 kmh 30.00 in1015.9 mb 0.00 in0.0 mm 0.00 in0.0 mm 0.00 in0.0 mm
08:25 AM 76.3°F24.6°C 70.5°F21.4°C 82% 4.5 mph NE7.2 kmh NE 11.0 mph17.7 kmh 30.00 in1015.9 mb 0.00 in0.0 mm 0.00 in0.0 mm 0.00 in0.0 mm
08:30 AM 76.6°F24.8°C 71.1°F21.7°C 83% 2.6 mph NE4.2 kmh NE 11.0 mph17.7 kmh 30.00 in1015.9 mb 0.00 in0.0 mm 0.00 in0.0 mm 0.00 in0.0 mm
08:35 AM 77.3°F25.2°C 71.5°F21.9°C 82% 2.8 mph NE4.5 kmh NE 9.0 mph14.5 kmh 30.00 in1015.9 mb 0.00 in0.0 mm 0.00 in0.0 mm 0.00 in0.0 mm
08:40 AM 77.9°F25.5°C 71.7°F22.1°C 81% 1.4 mph NNE2.3 kmh NNE 9.0 mph14.5 kmh 30.00 in1015.9 mb 0.00 in0.0 mm 0.00 in0.0 mm 0.00 in0.0 mm
08:45 AM 78.0°F25.6°C 71.3°F21.8°C 80% 3.8 mph NE6.1 kmh NE 10.0 mph16.1 kmh 30.00 in1015.9 mb 0.00 in0.0 mm 0.00 in0.0 mm 0.00 in0.0 mm
08:50 AM 78.4°F25.8°C 71.8°F22.1°C 80% 2.8 mph NNE4.5 kmh NNE 10.0 mph16.1 kmh 30.00 in1015.9 mb 0.00 in0.0 mm 0.00 in0.0 mm 0.00 in0.0 mm
08:55 AM 78.8°F26.0°C 71.9°F22.2°C 79% 2.7 mph NNE4.3 kmh NNE 11.0 mph17.7 kmh 30.00 in1015.9 mb 0.00 in0.0 mm 0.00 in0.0 mm 0.00 in0.0 mm
09:00 AM 79.0°F26.1°C 72.1°F22.3°C 79% 2.4 mph N3.9 kmh N 11.0 mph17.7 kmh 30.00 in1015.9 mb 0.00 in0.0 mm 0.00 in0.0 mm 0.00 in0.0 mm
09:05 AM 79.5°F26.4°C 72.2°F22.3°C 78% 4.2 mph NE6.8 kmh NE 11.0 mph17.7 kmh 30.00 in1015.9 mb 0.00 in0.0 mm 0.00 in0.0 mm 0.00 in0.0 mm
09:10 AM 79.2°F26.2°C 71.7°F22.1°C 78% 4.7 mph NE7.6 kmh NE 11.0 mph17.7 kmh 29.99 in1015.6 mb 0.00 in0.0 mm 0.00 in0.0 mm 0.00 in0.0 mm
09:15 AM 79.4°F26.3°C 72.1°F22.3°C 78% 5.6 mph NE9.0 kmh NE 10.0 mph16.1 kmh 29.99 in1015.6 mb 0.00 in0.0 mm 0.00 in0.0 mm 0.00 in0.0 mm
09:20 AM 79.9°F26.6°C 72.6°F22.6°C 78% 2.2 mph NNE3.5 kmh NNE 10.0 mph16.1 kmh 29.99 in1015.6 mb 0.00 in0.0 mm 0.00 in0.0 mm 0.00 in0.0 mm
09:25 AM 80.7°F27.1°C 72.2°F22.3°C 75% 3.8 mph NE6.1 kmh NE 10.0 mph16.1 kmh 29.99 in1015.6 mb 0.00 in0.0 mm 0.00 in0.0 mm 0.00 in0.0 mm
09:30 AM 80.9°F27.2°C 72.0°F22.2°C 74% 5.4 mph NE8.7 kmh NE 10.0 mph16.1 kmh 29.99 in1015.6 mb 0.00 in0.0 mm 0.00 in0.0 mm 0.00 in0.0 mm
09:35 AM 81.1°F27.3°C 72.2°F22.3°C 74% 6.2 mph NE10.0 kmh NE 13.0 mph20.9 kmh 29.99 in1015.6 mb 0.00 in0.0 mm 0.00 in0.0 mm 0.00 in0.0 mm
09:40 AM 81.5°F27.5°C 72.2°F22.3°C 73% 6.5 mph NE10.5 kmh NE 14.0 mph22.5 kmh 29.99 in1015.6 mb 0.00 in0.0 mm 0.00 in0.0 mm 0.00 in0.0 mm
09:45 AM 81.6°F27.6°C 71.9°F22.2°C 72% 3.5 mph NNE5.6 kmh NNE 14.0 mph22.5 kmh 29.99 in1015.6 mb 0.00 in0.0 mm 0.00 in0.0 mm 0.00 in0.0 mm
09:50 AM 82.1°F27.8°C 72.4°F22.4°C 72% 5.4 mph NE8.7 kmh NE 14.0 mph22.5 kmh 29.99 in1015.6 mb 0.00 in0.0 mm 0.00 in0.0 mm 0.00 in0.0 mm
09:55 AM 82.2°F27.9°C 71.7°F22.1°C 70% 6.7 mph NE10.8 kmh NE 14.0 mph22.5 kmh 29.99 in1015.6 mb 0.00 in0.0 mm 0.00 in0.0 mm 0.00 in0.0 mm
10:00 AM 82.2°F27.9°C 72.1°F22.3°C 71% 8.2 mph NE13.2 kmh NE 15.0 mph24.1 kmh 29.99 in1015.6 mb 0.00 in0.0 mm 0.00 in0.0 mm 0.00 in0.0 mm
10:05 AM 82.2°F27.9°C 72.1°F22.3°C 71% 7.6 mph NE12.2 kmh NE 17.0 mph27.4 kmh 29.99 in1015.6 mb 0.00 in0.0 mm 0.00 in0.0 mm 0.00 in0.0 mm
10:10 AM 82.8°F28.2°C 71.4°F21.9°C 68% 8.3 mph NE13.4 kmh NE 18.0 mph29.0 kmh 29.99 in1015.6 mb 0.00 in0.0 mm 0.00 in0.0 mm 0.00 in0.0 mm
10:15 AM 83.0°F28.3°C 71.6°F22.0°C 68% 6.6 mph NNE10.6 kmh NNE 18.0 mph29.0 kmh 29.98 in1015.2 mb 0.00 in0.0 mm 0.00 in0.0 mm 0.00 in0.0 mm
10:20 AM 83.6°F28.7°C 71.7°F22.1°C 67% 5.3 mph NE8.5 kmh NE 18.0 mph29.0 kmh 29.98 in1015.2 mb 0.00 in0.0 mm 0.00 in0.0 mm 0.00 in0.0 mm
10:25 AM 84.0°F28.9°C 71.7°F22.1°C 66% 8.6 mph NE13.8 kmh NE 18.0 mph29.0 kmh 29.98 in1015.2 mb 0.00 in0.0 mm 0.00 in0.0 mm 0.00 in0.0 mm
10:30 AM 84.0°F28.9°C 71.2°F21.8°C 65% 10.0 mph NE16.1 kmh NE 17.0 mph27.4 kmh 29.98 in1015.2 mb 0.00 in0.0 mm 0.00 in0.0 mm 0.00 in0.0 mm
10:35 AM 84.3°F29.1°C 71.5°F21.9°C 65% 6.2 mph NE10.0 kmh NE 16.0 mph25.7 kmh 29.98 in1015.2 mb 0.00 in0.0 mm 0.00 in0.0 mm 0.00 in0.0 mm
10:40 AM 84.6°F29.2°C 72.3°F22.4°C 66% 4.2 mph NE6.8 kmh NE 16.0 mph25.7 kmh 29.98 in1015.2 mb 0.00 in0.0 mm 0.00 in0.0 mm 0.00 in0.0 mm
10:45 AM 85.2°F29.6°C 72.4°F22.4°C 65% 4.6 mph NE7.4 kmh NE 16.0 mph25.7 kmh 29.98 in1015.2 mb 0.00 in0.0 mm 0.00 in0.0 mm 0.00 in0.0 mm
10:50 AM 85.3°F29.6°C 71.3°F21.8°C 63% 7.1 mph NE11.4 kmh NE 16.0 mph25.7 kmh 29.98 in1015.2 mb 0.00 in0.0 mm 0.00 in0.0 mm 0.00 in0.0 mm
10:55 AM 85.3°F29.6°C 71.6°F22.0°C 63% 6.6 mph ENE10.6 kmh ENE 15.0 mph24.1 kmh 29.97 in1014.9 mb 0.00 in0.0 mm 0.00 in0.0 mm 0.00 in0.0 mm
11:00 AM 85.9°F29.9°C 72.1°F22.3°C 63% 5.0 mph NE8.0 kmh NE 15.0 mph24.1 kmh 29.97 in1014.9 mb 0.00 in0.0 mm 0.00 in0.0 mm 0.00 in0.0 mm
11:05 AM 86.3°F30.2°C 72.5°F22.5°C 63% 4.4 mph NE7.1 kmh NE 15.0 mph24.1 kmh 29.97 in1014.9 mb 0.00 in0.0 mm 0.00 in0.0 mm 0.00 in0.0 mm
11:10 AM 86.5°F30.3°C 71.5°F21.9°C 61% 3.8 mph NNE6.1 kmh NNE 15.0 mph24.1 kmh 29.97 in1014.9 mb 0.00 in0.0 mm 0.00 in0.0 mm 0.00 in0.0 mm
11:15 AM 86.3°F30.2°C 70.6°F21.4°C 59% 11.8 mph NE19.0 kmh NE 21.0 mph33.8 kmh 29.97 in1014.9 mb 0.00 in0.0 mm 0.00 in0.0 mm 0.00 in0.0 mm
11:20 AM 86.5°F30.3°C 71.2°F21.8°C 60% 4.9 mph NE7.9 kmh NE 21.0 mph33.8 kmh 29.97 in1014.9 mb 0.00 in0.0 mm 0.00 in0.0 mm 0.00 in0.0 mm
11:25 AM 86.5°F30.3°C 70.7°F21.5°C 59% 12.4 mph NE20.0 kmh NE 21.0 mph33.8 kmh 29.96 in1014.6 mb 0.00 in0.0 mm 0.00 in0.0 mm 0.00 in0.0 mm
11:30 AM 86.5°F30.3°C 70.2°F21.2°C 58% 12.0 mph NE19.3 kmh NE 21.0 mph33.8 kmh 29.97 in1014.9 mb 0.00 in0.0 mm 0.00 in0.0 mm 0.00 in0.0 mm
11:35 AM 86.5°F30.3°C 70.5°F21.4°C 59% 8.2 mph NE13.2 kmh NE 19.0 mph30.6 kmh 29.96 in1014.6 mb 0.00 in0.0 mm 0.00 in0.0 mm 0.00 in0.0 mm
11:40 AM 87.3°F30.7°C 71.2°F21.8°C 59% 3.7 mph NNE6.0 kmh NNE 19.0 mph30.6 kmh 29.96 in1014.6 mb 0.00 in0.0 mm 0.00 in0.0 mm 0.00 in0.0 mm
11:45 AM 87.4°F30.8°C 71.1°F21.7°C 58% 8.1 mph NE13.0 kmh NE 19.0 mph30.6 kmh 29.96 in1014.6 mb 0.00 in0.0 mm 0.00 in0.0 mm 0.00 in0.0 mm
11:50 AM 87.6°F30.9°C 70.2°F21.2°C 56% 8.9 mph NE14.3 kmh NE 19.0 mph30.6 kmh 29.96 in1014.6 mb 0.00 in0.0 mm 0.00 in0.0 mm 0.00 in0.0 mm
11:55 AM 87.5°F30.8°C 69.6°F20.9°C 55% 9.1 mph NE14.6 kmh NE 19.0 mph30.6 kmh 29.96 in1014.6 mb 0.00 in0.0 mm 0.00 in0.0 mm 0.00 in0.0 mm
12:00 PM 87.9°F31.1°C 71.0°F21.7°C 57% 9.1 mph NE14.6 kmh NE 19.0 mph30.6 kmh 29.95 in1014.2 mb 0.00 in0.0 mm 0.00 in0.0 mm 0.00 in0.0 mm
12:05 PM 88.1°F31.2°C 70.7°F21.5°C 56% 5.3 mph NE8.5 kmh NE 19.0 mph30.6 kmh 29.95 in1014.2 mb 0.00 in0.0 mm 0.00 in0.0 mm 0.00 in0.0 mm
12:09 PM 88.3°F31.3°C 69.0°F20.6°C 53% 10.5 mph NE16.9 kmh NE 19.0 mph30.6 kmh 29.95 in1014.2 mb 0.00 in0.0 mm 0.00 in0.0 mm 0.00 in0.0 mm
12:14 PM 88.5°F31.4°C 69.4°F20.8°C 53% 7.3 mph NE11.7 kmh NE 18.0 mph29.0 kmh 29.95 in1014.2 mb 0.00 in0.0 mm 0.00 in0.0 mm 0.00 in0.0 mm
12:19 PM 89.0°F31.7°C 68.5°F20.3°C 51% 10.3 mph NE16.6 kmh NE 18.0 mph29.0 kmh 29.95 in1014.2 mb 0.00 in0.0 mm 0.00 in0.0 mm 0.00 in0.0 mm
12:24 PM 89.1°F31.7°C 68.2°F20.1°C 50% 8.6 mph NE13.8 kmh NE 18.0 mph29.0 kmh 29.94 in1013.9 mb 0.00 in0.0 mm 0.00 in0.0 mm 0.00 in0.0 mm
12:29 PM 89.2°F31.8°C 68.7°F20.4°C 51% 8.4 mph ENE13.5 kmh ENE 18.0 mph29.0 kmh 29.94 in1013.9 mb 0.00 in0.0 mm 0.00 in0.0 mm 0.00 in0.0 mm
12:34 PM 89.8°F32.1°C 69.5°F20.8°C 51% 5.2 mph NE8.4 kmh NE 18.0 mph29.0 kmh 29.94 in1013.9 mb 0.00 in0.0 mm 0.00 in0.0 mm 0.00 in0.0 mm
12:39 PM 90.1°F32.3°C 67.3°F19.6°C 47% 4.7 mph NE7.6 kmh NE 18.0 mph29.0 kmh 29.94 in1013.9 mb 0.00 in0.0 mm 0.00 in0.0 mm 0.00 in0.0 mm
12:44 PM 90.6°F32.6°C 68.4°F20.2°C 48% 4.2 mph NE6.8 kmh NE 18.0 mph29.0 kmh 29.93 in1013.5 mb 0.00 in0.0 mm 0.00 in0.0 mm 0.00 in0.0 mm
12:49 PM 90.8°F32.7°C 68.5°F20.3°C 48% 6.8 mph NE10.9 kmh NE 14.0 mph22.5 kmh 29.93 in1013.5 mb 0.00 in0.0 mm 0.00 in0.0 mm 0.00 in0.0 mm
12:54 PM 90.4°F32.4°C 66.3°F19.1°C 45% 9.8 mph NE15.8 kmh NE 16.0 mph25.7 kmh 29.93 in1013.5 mb 0.00 in0.0 mm 0.00 in0.0 mm 0.00 in0.0 mm
12:59 PM 90.5°F32.5°C 66.3°F19.1°C 45% 5.7 mph NNE9.2 kmh NNE 16.0 mph25.7 kmh 29.93 in1013.5 mb 0.00 in0.0 mm 0.00 in0.0 mm 0.00 in0.0 mm
01:04 PM 90.8°F32.7°C 67.9°F19.9°C 47% 3.2 mph NE5.1 kmh NE 16.0 mph25.7 kmh 29.93 in1013.5 mb 0.00 in0.0 mm 0.00 in0.0 mm 0.00 in0.0 mm
01:09 PM 91.1°F32.8°C 65.5°F18.6°C 43% 6.9 mph NE11.1 kmh NE 16.0 mph25.7 kmh 29.93 in1013.5 mb 0.00 in0.0 mm 0.00 in0.0 mm 0.00 in0.0 mm
01:14 PM 91.1°F32.8°C 64.8°F18.2°C 42% 7.2 mph NE11.6 kmh NE 19.0 mph30.6 kmh 29.93 in1013.5 mb 0.00 in0.0 mm 0.00 in0.0 mm 0.00 in0.0 mm
01:19 PM 91.1°F32.8°C 64.1°F17.8°C 41% 8.8 mph NE14.2 kmh NE 19.0 mph30.6 kmh 29.93 in1013.5 mb 0.00 in0.0 mm 0.00 in0.0 mm 0.00 in0.0 mm
01:24 PM 91.2°F32.9°C 64.9°F18.3°C 42% 7.2 mph NE11.6 kmh NE 19.0 mph30.6 kmh 29.92 in1013.2 mb 0.00 in0.0 mm 0.00 in0.0 mm 0.00 in0.0 mm
01:29 PM 91.4°F33.0°C 65.1°F18.4°C 42% 8.2 mph NE13.2 kmh NE 19.0 mph30.6 kmh 29.92 in1013.2 mb 0.00 in0.0 mm 0.00 in0.0 mm 0.00 in0.0 mm
01:34 PM 91.5°F33.1°C 65.2°F18.4°C 42% 8.2 mph NE13.2 kmh NE 19.0 mph30.6 kmh 29.92 in1013.2 mb 0.00 in0.0 mm 0.00 in0.0 mm 0.00 in0.0 mm
01:39 PM 91.8°F33.2°C 65.5°F18.6°C 42% 4.6 mph NNE7.4 kmh NNE 19.0 mph30.6 kmh 29.92 in1013.2 mb 0.00 in0.0 mm 0.00 in0.0 mm 0.00 in0.0 mm
01:44 PM 91.9°F33.3°C 64.1°F17.8°C 40% 8.8 mph N14.2 kmh N 19.0 mph30.6 kmh 29.92 in1013.2 mb 0.00 in0.0 mm 0.00 in0.0 mm 0.00 in0.0 mm
01:49 PM 92.0°F33.3°C 63.5°F17.5°C 39% 10.0 mph NE16.1 kmh NE 18.0 mph29.0 kmh 29.92 in1013.2 mb 0.00 in0.0 mm 0.00 in0.0 mm 0.00 in0.0 mm
01:54 PM 92.0°F33.3°C 63.5°F17.5°C 39% 6.8 mph NE10.9 kmh NE 18.0 mph29.0 kmh 29.92 in1013.2 mb 0.00 in0.0 mm 0.00 in0.0 mm 0.00 in0.0 mm
01:59 PM 92.1°F33.4°C 64.3°F17.9°C 40% 6.3 mph NNE10.1 kmh NNE 21.0 mph33.8 kmh 29.91 in1012.9 mb 0.00 in0.0 mm 0.00 in0.0 mm 0.00 in0.0 mm
02:04 PM 92.3°F33.5°C 63.0°F17.2°C 38% 6.1 mph NE9.8 kmh NE 21.0 mph33.8 kmh 29.91 in1012.9 mb 0.00 in0.0 mm 0.00 in0.0 mm 0.00 in0.0 mm
02:09 PM 92.4°F33.6°C 63.1°F17.3°C 38% 9.2 mph NE14.8 kmh NE 22.0 mph35.4 kmh 29.91 in1012.9 mb 0.00 in0.0 mm 0.00 in0.0 mm 0.00 in0.0 mm
02:14 PM 92.3°F33.5°C 63.0°F17.2°C 38% 6.5 mph NE10.5 kmh NE 23.0 mph37.0 kmh 29.91 in1012.9 mb 0.00 in0.0 mm 0.00 in0.0 mm 0.00 in0.0 mm
02:19 PM 92.3°F33.5°C 62.3°F16.8°C 37% 11.4 mph NE18.3 kmh NE 23.0 mph37.0 kmh 29.90 in1012.5 mb 0.00 in0.0 mm 0.00 in0.0 mm 0.00 in0.0 mm
02:24 PM 92.2°F33.4°C 62.9°F17.2°C 38% 8.6 mph NE13.8 kmh NE 23.0 mph37.0 kmh 29.90 in1012.5 mb 0.00 in0.0 mm 0.00 in0.0 mm 0.00 in0.0 mm
02:29 PM 92.1°F33.4°C 63.6°F17.6°C 39% 12.0 mph NE19.3 kmh NE 22.0 mph35.4 kmh 29.90 in1012.5 mb 0.00 in0.0 mm 0.00 in0.0 mm 0.00 in0.0 mm
02:34 PM 92.0°F33.3°C 63.5°F17.5°C 39% 11.9 mph NE19.2 kmh NE 22.0 mph35.4 kmh 29.90 in1012.5 mb 0.00 in0.0 mm 0.00 in0.0 mm 0.00 in0.0 mm
02:39 PM 92.1°F33.4°C 63.6°F17.6°C 39% 8.9 mph NE14.3 kmh NE 20.0 mph32.2 kmh 29.90 in1012.5 mb 0.00 in0.0 mm 0.00 in0.0 mm 0.00 in0.0 mm
02:44 PM 92.4°F33.6°C 63.8°F17.7°C 39% 8.9 mph NE14.3 kmh NE 20.0 mph32.2 kmh 29.89 in1012.2 mb 0.00 in0.0 mm 0.00 in0.0 mm 0.00 in0.0 mm
02:49 PM 92.8°F33.8°C 64.9°F18.3°C 40% 6.3 mph NE10.1 kmh NE 20.0 mph32.2 kmh 29.89 in1012.2 mb 0.00 in0.0 mm 0.00 in0.0 mm 0.00 in0.0 mm
02:54 PM 92.7°F33.7°C 64.8°F18.2°C 40% 7.3 mph NE11.7 kmh NE 19.0 mph30.6 kmh 29.89 in1012.2 mb 0.00 in0.0 mm 0.00 in0.0 mm 0.00 in0.0 mm
02:59 PM 92.5°F33.6°C 63.9°F17.7°C 39% 9.0 mph NE14.5 kmh NE 19.0 mph30.6 kmh 29.89 in1012.2 mb 0.00 in0.0 mm 0.00 in0.0 mm 0.00 in0.0 mm
03:04 PM 92.5°F33.6°C 64.7°F18.2°C 40% 9.8 mph NE15.8 kmh NE 19.0 mph30.6 kmh 29.89 in1012.2 mb 0.00 in0.0 mm 0.00 in0.0 mm 0.00 in0.0 mm
03:09 PM 92.4°F33.6°C 63.8°F17.7°C 39% 8.9 mph NE14.3 kmh NE 19.0 mph30.6 kmh 29.88 in1011.9 mb 0.00 in0.0 mm 0.00 in0.0 mm 0.00 in0.0 mm
03:14 PM 92.5°F33.6°C 65.4°F18.6°C 41% 4.8 mph NE7.7 kmh NE 19.0 mph30.6 kmh 29.88 in1011.9 mb 0.00 in0.0 mm 0.00 in0.0 mm 0.00 in0.0 mm
03:19 PM 92.5°F33.6°C 65.4°F18.6°C 41% 7.5 mph NE12.1 kmh NE 19.0 mph30.6 kmh 29.88 in1011.9 mb 0.00 in0.0 mm 0.00 in0.0 mm 0.00 in0.0 mm
03:24 PM 92.8°F33.8°C 65.7°F18.7°C 41% 6.8 mph NE10.9 kmh NE 19.0 mph30.6 kmh 29.88 in1011.9 mb 0.00 in0.0 mm 0.00 in0.0 mm 0.00 in0.0 mm
03:29 PM 93.2°F34.0°C 65.3°F18.5°C 40% 7.6 mph NE12.2 kmh NE 19.0 mph30.6 kmh 29.88 in1011.9 mb 0.00 in0.0 mm 0.00 in0.0 mm 0.00 in0.0 mm
03:34 PM 93.1°F33.9°C 66.6°F19.2°C 42% 3.6 mph NE5.8 kmh NE 19.0 mph30.6 kmh 29.88 in1011.9 mb 0.00 in0.0 mm 0.00 in0.0 mm 0.00 in0.0 mm
03:39 PM 93.3°F34.1°C 66.1°F18.9°C 41% 7.7 mph NE12.4 kmh NE 16.0 mph25.7 kmh 29.88 in1011.9 mb 0.00 in0.0 mm 0.00 in0.0 mm 0.00 in0.0 mm
03:44 PM 93.4°F34.1°C 66.9°F19.4°C 42% 6.3 mph NE10.1 kmh NE 18.0 mph29.0 kmh 29.88 in1011.9 mb 0.00 in0.0 mm 0.00 in0.0 mm 0.00 in0.0 mm
03:49 PM 92.9°F33.8°C 67.2°F19.6°C 43% 6.0 mph NE9.7 kmh NE 18.0 mph29.0 kmh 29.88 in1011.9 mb 0.00 in0.0 mm 0.00 in0.0 mm 0.00 in0.0 mm
03:54 PM 92.9°F33.8°C 66.5°F19.2°C 42% 8.5 mph NE13.7 kmh NE 18.0 mph29.0 kmh 29.88 in1011.9 mb 0.00 in0.0 mm 0.00 in0.0 mm 0.00 in0.0 mm
03:59 PM 92.9°F33.8°C 66.5°F19.2°C 42% 5.8 mph NE9.3 kmh NE 18.0 mph29.0 kmh 29.87 in1011.5 mb 0.00 in0.0 mm 0.00 in0.0 mm 0.00 in0.0 mm
04:04 PM 93.1°F33.9°C 66.6°F19.2°C 42% 7.6 mph NE12.2 kmh NE 18.0 mph29.0 kmh 29.87 in1011.5 mb 0.00 in0.0 mm 0.00 in0.0 mm 0.00 in0.0 mm
04:09 PM 92.9°F33.8°C 66.5°F19.2°C 42% 8.0 mph NE12.9 kmh NE 16.0 mph25.7 kmh 29.87 in1011.5 mb 0.00 in0.0 mm 0.00 in0.0 mm 0.00 in0.0 mm
04:14 PM 92.9°F33.8°C 66.5°F19.2°C 42% 9.9 mph NE15.9 kmh NE 15.0 mph24.1 kmh 29.87 in1011.5 mb 0.00 in0.0 mm 0.00 in0.0 mm 0.00 in0.0 mm
04:19 PM 93.1°F33.9°C 67.3°F19.6°C 43% 3.1 mph N5.0 kmh N 15.0 mph24.1 kmh 29.87 in1011.5 mb 0.00 in0.0 mm 0.00 in0.0 mm 0.00 in0.0 mm
04:24 PM 93.4°F34.1°C 66.9°F19.4°C 42% 6.0 mph NE9.7 kmh NE 15.0 mph24.1 kmh 29.88 in1011.9 mb 0.00 in0.0 mm 0.00 in0.0 mm 0.00 in0.0 mm
04:29 PM 93.2°F34.0°C 66.7°F19.3°C 42% 6.8 mph NE10.9 kmh NE 15.0 mph24.1 kmh 29.88 in1011.9 mb 0.00 in0.0 mm 0.00 in0.0 mm 0.00 in0.0 mm
04:34 PM 93.1°F33.9°C 66.6°F19.2°C 42% 8.2 mph NE13.2 kmh NE 15.0 mph24.1 kmh 29.88 in1011.9 mb 0.00 in0.0 mm 0.00 in0.0 mm 0.00 in0.0 mm
04:39 PM 93.0°F33.9°C 66.5°F19.2°C 42% 9.9 mph NE15.9 kmh NE 16.0 mph25.7 kmh 29.88 in1011.9 mb 0.00 in0.0 mm 0.00 in0.0 mm 0.00 in0.0 mm
04:44 PM 92.7°F33.7°C 66.3°F19.1°C 42% 7.3 mph NE11.7 kmh NE 16.0 mph25.7 kmh 29.88 in1011.9 mb 0.00 in0.0 mm 0.00 in0.0 mm 0.00 in0.0 mm
04:49 PM 92.8°F33.8°C 67.1°F19.5°C 43% 8.5 mph NE13.7 kmh NE 16.0 mph25.7 kmh 29.88 in1011.9 mb 0.00 in0.0 mm 0.00 in0.0 mm 0.00 in0.0 mm
04:54 PM 92.7°F33.7°C 66.3°F19.1°C 42% 7.3 mph NE11.7 kmh NE 16.0 mph25.7 kmh 29.88 in1011.9 mb 0.00 in0.0 mm 0.00 in0.0 mm 0.00 in0.0 mm
04:59 PM 92.7°F33.7°C 67.0°F19.4°C 43% 5.5 mph NE8.9 kmh NE 16.0 mph25.7 kmh 29.88 in1011.9 mb 0.00 in0.0 mm 0.00 in0.0 mm 0.00 in0.0 mm
05:04 PM 92.8°F33.8°C 67.0°F19.4°C 43% 5.8 mph NE9.3 kmh NE 15.0 mph24.1 kmh 29.88 in1011.9 mb 0.00 in0.0 mm 0.00 in0.0 mm 0.00 in0.0 mm
05:08 PM 93.1°F33.9°C 68.0°F20.0°C 44% 3.1 mph NE5.0 kmh NE 14.0 mph22.5 kmh 29.88 in1011.9 mb 0.00 in0.0 mm 0.00 in0.0 mm 0.00 in0.0 mm
05:13 PM 92.9°F33.8°C 67.9°F19.9°C 44% 5.9 mph NE9.5 kmh NE 13.0 mph20.9 kmh 29.88 in1011.9 mb 0.00 in0.0 mm 0.00 in0.0 mm 0.00 in0.0 mm
05:18 PM 92.8°F33.8°C 67.1°F19.5°C 43% 3.3 mph NE5.3 kmh NE 13.0 mph20.9 kmh 29.88 in1011.9 mb 0.00 in0.0 mm 0.00 in0.0 mm 0.00 in0.0 mm
05:23 PM 92.7°F33.7°C 67.0°F19.4°C 43% 6.0 mph NE9.7 kmh NE 13.0 mph20.9 kmh 29.87 in1011.5 mb 0.00 in0.0 mm 0.00 in0.0 mm 0.00 in0.0 mm
05:28 PM 92.8°F33.8°C 68.4°F20.2°C 45% 4.1 mph NE6.6 kmh NE 13.0 mph20.9 kmh 29.87 in1011.5 mb 0.00 in0.0 mm 0.00 in0.0 mm 0.00 in0.0 mm
05:33 PM 92.7°F33.7°C 68.3°F20.2°C 45% 5.6 mph NE9.0 kmh NE 13.0 mph20.9 kmh 29.87 in1011.5 mb 0.00 in0.0 mm 0.00 in0.0 mm 0.00 in0.0 mm
05:38 PM 92.4°F33.6°C 68.1°F20.1°C 45% 3.2 mph NE5.1 kmh NE 11.0 mph17.7 kmh 29.87 in1011.5 mb 0.00 in0.0 mm 0.00 in0.0 mm 0.00 in0.0 mm
05:43 PM 92.3°F33.5°C 68.0°F20.0°C 45% 3.1 mph NE5.0 kmh NE 11.0 mph17.7 kmh 29.87 in1011.5 mb 0.00 in0.0 mm 0.00 in0.0 mm 0.00 in0.0 mm
05:48 PM 92.1°F33.4°C 67.8°F19.9°C 45% 8.3 mph NE13.4 kmh NE 11.0 mph17.7 kmh 29.87 in1011.5 mb 0.00 in0.0 mm 0.00 in0.0 mm 0.00 in0.0 mm
05:53 PM 91.8°F33.2°C 68.2°F20.1°C 46% 5.3 mph NE8.5 kmh NE 11.0 mph17.7 kmh 29.87 in1011.5 mb 0.00 in0.0 mm 0.00 in0.0 mm 0.00 in0.0 mm
05:59 PM 91.6°F33.1°C 68.0°F20.0°C 46% 6.1 mph NE9.8 kmh NE 11.0 mph17.7 kmh 29.87 in1011.5 mb 0.00 in0.0 mm 0.00 in0.0 mm 0.00 in0.0 mm
06:04 PM 91.4°F33.0°C 67.8°F19.9°C 46% 4.3 mph NE6.9 kmh NE 11.0 mph17.7 kmh 29.87 in1011.5 mb 0.00 in0.0 mm 0.00 in0.0 mm 0.00 in0.0 mm
06:09 PM 91.3°F32.9°C 67.7°F19.8°C 46% 4.9 mph NE7.9 kmh NE 10.0 mph16.1 kmh 29.87 in1011.5 mb 0.00 in0.0 mm 0.00 in0.0 mm 0.00 in0.0 mm
06:14 PM 91.1°F32.8°C 67.5°F19.7°C 46% 4.8 mph NE7.7 kmh NE 10.0 mph16.1 kmh 29.87 in1011.5 mb 0.00 in0.0 mm 0.00 in0.0 mm 0.00 in0.0 mm
06:19 PM 90.9°F32.7°C 68.0°F20.0°C 47% 3.0 mph NE4.8 kmh NE 9.0 mph14.5 kmh 29.87 in1011.5 mb 0.00 in0.0 mm 0.00 in0.0 mm 0.00 in0.0 mm
06:24 PM 90.8°F32.7°C 67.9°F19.9°C 47% 4.8 mph NE7.7 kmh NE 9.0 mph14.5 kmh 29.87 in1011.5 mb 0.00 in0.0 mm 0.00 in0.0 mm 0.00 in0.0 mm
06:29 PM 90.4°F32.4°C 67.6°F19.8°C 47% 4.4 mph NE7.1 kmh NE 8.0 mph12.9 kmh 29.87 in1011.5 mb 0.00 in0.0 mm 0.00 in0.0 mm 0.00 in0.0 mm
06:34 PM 90.2°F32.3°C 68.0°F20.0°C 48% 3.8 mph NE6.1 kmh NE 8.0 mph12.9 kmh 29.87 in1011.5 mb 0.00 in0.0 mm 0.00 in0.0 mm 0.00 in0.0 mm
06:39 PM 89.8°F32.1°C 67.6°F19.8°C 48% 4.1 mph NE6.6 kmh NE 8.0 mph12.9 kmh 29.87 in1011.5 mb 0.00 in0.0 mm 0.00 in0.0 mm 0.00 in0.0 mm
06:44 PM 89.5°F31.9°C 68.0°F20.0°C 49% 2.9 mph NE4.7 kmh NE 8.0 mph12.9 kmh 29.87 in1011.5 mb 0.00 in0.0 mm 0.00 in0.0 mm 0.00 in0.0 mm
06:49 PM 89.1°F31.7°C 67.6°F19.8°C 49% 2.9 mph NE4.7 kmh NE 7.0 mph11.3 kmh 29.87 in1011.5 mb 0.00 in0.0 mm 0.00 in0.0 mm 0.00 in0.0 mm
06:53 PM 88.8°F31.6°C 67.8°F19.9°C 50% 3.4 mph NE5.5 kmh NE 7.0 mph11.3 kmh 29.87 in1011.5 mb 0.00 in0.0 mm 0.00 in0.0 mm 0.00 in0.0 mm
06:59 PM 88.5°F31.4°C 67.7°F19.8°C 50% 2.3 mph NE3.7 kmh NE 7.0 mph11.3 kmh 29.87 in1011.5 mb 0.00 in0.0 mm 0.00 in0.0 mm 0.00 in0.0 mm
07:04 PM 88.3°F31.3°C 67.5°F19.7°C 50% 2.5 mph NE4.0 kmh NE 6.0 mph9.7 kmh 29.87 in1011.5 mb 0.00 in0.0 mm 0.00 in0.0 mm 0.00 in0.0 mm
07:09 PM 88.1°F31.2°C 67.9°F19.9°C 51% 1.9 mph NE3.1 kmh NE 6.0 mph9.7 kmh 29.88 in1011.9 mb 0.00 in0.0 mm 0.00 in0.0 mm 0.00 in0.0 mm
07:14 PM 87.8°F31.0°C 67.6°F19.8°C 51% 2.4 mph NE3.9 kmh NE 5.0 mph8.0 kmh 29.88 in1011.9 mb 0.00 in0.0 mm 0.00 in0.0 mm 0.00 in0.0 mm
07:19 PM 87.7°F30.9°C 67.5°F19.7°C 51% 1.7 mph NE2.7 kmh NE 5.0 mph8.0 kmh 29.88 in1011.9 mb 0.00 in0.0 mm 0.00 in0.0 mm 0.00 in0.0 mm
07:24 PM 87.5°F30.8°C 67.1°F19.5°C 51% 1.0 mph NE1.6 kmh NE 4.0 mph6.4 kmh 29.88 in1011.9 mb 0.00 in0.0 mm 0.00 in0.0 mm 0.00 in0.0 mm
07:29 PM 87.4°F30.8°C 67.2°F19.6°C 51% 1.0 mph NE1.6 kmh NE 5.0 mph8.0 kmh 29.88 in1011.9 mb 0.00 in0.0 mm 0.00 in0.0 mm 0.00 in0.0 mm
07:34 PM 87.1°F30.6°C 67.5°F19.7°C 52% 1.0 mph NE1.6 kmh NE 5.0 mph8.0 kmh 29.88 in1011.9 mb 0.00 in0.0 mm 0.00 in0.0 mm 0.00 in0.0 mm
07:39 PM 86.8°F30.4°C 67.3°F19.6°C 52% 1.1 mph NNE1.8 kmh NNE 5.0 mph8.0 kmh 29.88 in1011.9 mb 0.00 in0.0 mm 0.00 in0.0 mm 0.00 in0.0 mm
07:44 PM 86.6°F30.3°C 67.1°F19.5°C 52% 1.0 mph N1.6 kmh N 5.0 mph8.0 kmh 29.87 in1011.5 mb 0.00 in0.0 mm 0.00 in0.0 mm 0.00 in0.0 mm
07:49 PM 86.4°F30.2°C 66.9°F19.4°C 52% 1.0 mph NE1.6 kmh NE 2.0 mph3.2 kmh 29.87 in1011.5 mb 0.00 in0.0 mm 0.00 in0.0 mm 0.00 in0.0 mm
07:54 PM 86.2°F30.1°C 67.3°F19.6°C 53% 1.5 mph NE2.4 kmh NE 2.0 mph3.2 kmh 29.87 in1011.5 mb 0.00 in0.0 mm 0.00 in0.0 mm 0.00 in0.0 mm
07:59 PM 86.1°F30.1°C 67.2°F19.6°C 53% Calm Calm 4.0 mph6.4 kmh 29.87 in1011.5 mb 0.00 in0.0 mm 0.00 in0.0 mm 0.00 in0.0 mm
08:04 PM 86.0°F30.0°C 67.1°F19.5°C 53% Calm Calm 4.0 mph6.4 kmh 29.87 in1011.5 mb 0.00 in0.0 mm 0.00 in0.0 mm 0.00 in0.0 mm
08:09 PM 85.7°F29.8°C 66.8°F19.3°C 53% Calm Calm 4.0 mph6.4 kmh 29.87 in1011.5 mb 0.00 in0.0 mm 0.00 in0.0 mm 0.00 in0.0 mm
08:14 PM 85.6°F29.8°C 67.3°F19.6°C 54% Calm Calm 4.0 mph6.4 kmh 29.87 in1011.5 mb 0.00 in0.0 mm 0.00 in0.0 mm 0.00 in0.0 mm
08:19 PM 85.5°F29.7°C 67.2°F19.6°C 54% 1.0 mph NNE1.6 kmh NNE 1.0 mph1.6 kmh 29.87 in1011.5 mb 0.00 in0.0 mm 0.00 in0.0 mm 0.00 in0.0 mm
08:24 PM 85.3°F29.6°C 66.8°F19.3°C 54% 1.0 mph NE1.6 kmh NE 1.0 mph1.6 kmh 29.87 in1011.5 mb 0.00 in0.0 mm 0.00 in0.0 mm 0.00 in0.0 mm
08:29 PM 85.2°F29.6°C 66.9°F19.4°C 54% Calm Calm 1.0 mph1.6 kmh 29.87 in1011.5 mb 0.00 in0.0 mm 0.00 in0.0 mm 0.00 in0.0 mm
08:34 PM 85.1°F29.5°C 67.3°F19.6°C 55% Calm Calm 1.0 mph1.6 kmh 29.87 in1011.5 mb 0.00 in0.0 mm 0.00 in0.0 mm 0.00 in0.0 mm
08:39 PM 84.9°F29.4°C 67.2°F19.6°C 55% Calm Calm 1.0 mph1.6 kmh 29.87 in1011.5 mb 0.00 in0.0 mm 0.00 in0.0 mm 0.00 in0.0 mm
08:44 PM 84.8°F29.3°C 67.4°F19.7°C 56% 1.3 mph NE2.1 kmh NE 2.0 mph3.2 kmh 29.87 in1011.5 mb 0.00 in0.0 mm 0.00 in0.0 mm 0.00 in0.0 mm
08:49 PM 84.7°F29.3°C 68.0°F20.0°C 57% Calm Calm 2.0 mph3.2 kmh 29.87 in1011.5 mb 0.00 in0.0 mm 0.00 in0.0 mm 0.00 in0.0 mm
08:54 PM 84.5°F29.2°C 67.6°F19.8°C 57% Calm Calm 2.0 mph3.2 kmh 29.87 in1011.5 mb 0.00 in0.0 mm 0.00 in0.0 mm 0.00 in0.0 mm
08:59 PM 84.4°F29.1°C 67.7°F19.8°C 57% 1.3 mph NE2.1 kmh NE 2.0 mph3.2 kmh 29.87 in1011.5 mb 0.00 in0.0 mm 0.00 in0.0 mm 0.00 in0.0 mm
09:04 PM 84.3°F29.1°C 67.4°F19.7°C 57% Calm Calm 2.0 mph3.2 kmh 29.88 in1011.9 mb 0.00 in0.0 mm 0.00 in0.0 mm 0.00 in0.0 mm
09:09 PM 84.2°F29.0°C 68.1°F20.1°C 58% Calm Calm 2.0 mph3.2 kmh 29.87 in1011.5 mb 0.00 in0.0 mm 0.00 in0.0 mm 0.00 in0.0 mm
09:14 PM 83.9°F28.8°C 67.8°F19.9°C 58% 1.0 mph N1.6 kmh N 2.0 mph3.2 kmh 29.88 in1011.9 mb 0.00 in0.0 mm 0.00 in0.0 mm 0.00 in0.0 mm
09:19 PM 83.7°F28.7°C 67.8°F19.9°C 59% Calm Calm 1.0 mph1.6 kmh 29.87 in1011.5 mb 0.00 in0.0 mm 0.00 in0.0 mm 0.00 in0.0 mm
09:24 PM 83.5°F28.6°C 67.9°F19.9°C 59% Calm Calm 1.0 mph1.6 kmh 29.87 in1011.5 mb 0.00 in0.0 mm 0.00 in0.0 mm 0.00 in0.0 mm
09:29 PM 83.2°F28.4°C 68.1°F20.1°C 60% 1.0 mph NE1.6 kmh NE 1.0 mph1.6 kmh 29.87 in1011.5 mb 0.00 in0.0 mm 0.00 in0.0 mm 0.00 in0.0 mm
09:34 PM 83.0°F28.3°C 67.7°F19.8°C 60% Calm Calm 1.0 mph1.6 kmh 29.87 in1011.5 mb 0.00 in0.0 mm 0.00 in0.0 mm 0.00 in0.0 mm
09:39 PM 82.7°F28.2°C 68.1°F20.1°C 61% Calm Calm 1.0 mph1.6 kmh 29.87 in1011.5 mb 0.00 in0.0 mm 0.00 in0.0 mm 0.00 in0.0 mm
09:44 PM 82.5°F28.1°C 67.9°F19.9°C 61% 1.2 mph NW1.9 kmh NW 2.0 mph3.2 kmh 29.87 in1011.5 mb 0.00 in0.0 mm 0.00 in0.0 mm 0.00 in0.0 mm
09:49 PM 82.3°F27.9°C 68.2°F20.1°C 62% 1.4 mph N2.3 kmh N 3.0 mph4.8 kmh 29.87 in1011.5 mb 0.00 in0.0 mm 0.00 in0.0 mm 0.00 in0.0 mm
09:54 PM 82.1°F27.8°C 68.5°F20.3°C 63% 1.0 mph N1.6 kmh N 3.0 mph4.8 kmh 29.87 in1011.5 mb 0.00 in0.0 mm 0.00 in0.0 mm 0.00 in0.0 mm
09:59 PM 81.9°F27.7°C 68.3°F20.2°C 63% Calm Calm 3.0 mph4.8 kmh 29.87 in1011.5 mb 0.00 in0.0 mm 0.00 in0.0 mm 0.00 in0.0 mm
10:04 PM 81.7°F27.6°C 68.3°F20.2°C 64% 1.4 mph NW2.3 kmh NW 3.0 mph4.8 kmh 29.87 in1011.5 mb 0.00 in0.0 mm 0.00 in0.0 mm 0.00 in0.0 mm
10:08 PM 81.7°F27.6°C 68.6°F20.3°C 64% 1.7 mph NW2.7 kmh NW 3.0 mph4.8 kmh 29.87 in1011.5 mb 0.00 in0.0 mm 0.00 in0.0 mm 0.00 in0.0 mm
10:13 PM 81.7°F27.6°C 68.6°F20.3°C 64% Calm Calm 3.0 mph4.8 kmh 29.86 in1011.2 mb 0.00 in0.0 mm 0.00 in0.0 mm 0.00 in0.0 mm
10:18 PM 81.6°F27.6°C 68.9°F20.5°C 65% Calm Calm 3.0 mph4.8 kmh 29.86 in1011.2 mb 0.00 in0.0 mm 0.00 in0.0 mm 0.00 in0.0 mm
10:23 PM 81.4°F27.4°C 68.8°F20.4°C 65% 1.7 mph NW2.7 kmh NW 3.0 mph4.8 kmh 29.86 in1011.2 mb 0.00 in0.0 mm 0.00 in0.0 mm 0.00 in0.0 mm
10:28 PM 81.4°F27.4°C 68.8°F20.4°C 65% 1.1 mph NW1.8 kmh NW 3.0 mph4.8 kmh 29.86 in1011.2 mb 0.00 in0.0 mm 0.00 in0.0 mm 0.00 in0.0 mm
10:33 PM 81.4°F27.4°C 68.5°F20.3°C 65% 1.0 mph NW1.6 kmh NW 3.0 mph4.8 kmh 29.86 in1011.2 mb 0.00 in0.0 mm 0.00 in0.0 mm 0.00 in0.0 mm
10:38 PM 81.3°F27.4°C 68.7°F20.4°C 65% 1.0 mph NNW1.6 kmh NNW 3.0 mph4.8 kmh 29.86 in1011.2 mb 0.00 in0.0 mm 0.00 in0.0 mm 0.00 in0.0 mm
10:43 PM 81.2°F27.3°C 69.0°F20.6°C 66% Calm Calm 3.0 mph4.8 kmh 29.86 in1011.2 mb 0.00 in0.0 mm 0.00 in0.0 mm 0.00 in0.0 mm
10:48 PM 81.0°F27.2°C 68.8°F20.4°C 66% Calm Calm 2.0 mph3.2 kmh 29.87 in1011.5 mb 0.00 in0.0 mm 0.00 in0.0 mm 0.00 in0.0 mm
10:53 PM 80.9°F27.2°C 68.7°F20.4°C 66% Calm Calm 2.0 mph3.2 kmh 29.87 in1011.5 mb 0.00 in0.0 mm 0.00 in0.0 mm 0.00 in0.0 mm
10:58 PM 80.7°F27.1°C 68.7°F20.4°C 67% 1.0 mph NE1.6 kmh NE 2.0 mph3.2 kmh 29.87 in1011.5 mb 0.00 in0.0 mm 0.00 in0.0 mm 0.00 in0.0 mm
11:03 PM 80.7°F27.1°C 69.0°F20.6°C 67% 1.0 mph NE1.6 kmh NE 1.0 mph1.6 kmh 29.87 in1011.5 mb 0.00 in0.0 mm 0.00 in0.0 mm 0.00 in0.0 mm
11:08 PM 80.7°F27.1°C 68.7°F20.4°C 67% 1.0 mph NNE1.6 kmh NNE 1.0 mph1.6 kmh 29.87 in1011.5 mb 0.00 in0.0 mm 0.00 in0.0 mm 0.00 in0.0 mm
11:13 PM 80.5°F26.9°C 68.8°F20.4°C 67% Calm Calm 1.0 mph1.6 kmh 29.87 in1011.5 mb 0.00 in0.0 mm 0.00 in0.0 mm 0.00 in0.0 mm
11:18 PM 80.3°F26.8°C 68.6°F20.3°C 67% Calm Calm 1.0 mph1.6 kmh 29.87 in1011.5 mb 0.00 in0.0 mm 0.00 in0.0 mm 0.00 in0.0 mm
11:23 PM 80.1°F26.7°C 68.8°F20.4°C 68% 1.0 mph NNE1.6 kmh NNE 1.0 mph1.6 kmh 29.87 in1011.5 mb 0.00 in0.0 mm 0.00 in0.0 mm 0.00 in0.0 mm
11:28 PM 79.9°F26.6°C 69.0°F20.6°C 69% Calm Calm 1.0 mph1.6 kmh 29.87 in1011.5 mb 0.00 in0.0 mm 0.00 in0.0 mm 0.00 in0.0 mm
11:33 PM 79.8°F26.6°C 69.0°F20.6°C 69% Calm Calm 1.0 mph1.6 kmh 29.87 in1011.5 mb 0.00 in0.0 mm 0.00 in0.0 mm 0.00 in0.0 mm
11:38 PM 79.6°F26.4°C 68.8°F20.4°C 69% 1.0 mph NW1.6 kmh NW 1.0 mph1.6 kmh 29.87 in1011.5 mb 0.00 in0.0 mm 0.00 in0.0 mm 0.00 in0.0 mm
11:43 PM 79.6°F26.4°C 68.8°F20.4°C 69% Calm Calm 1.0 mph1.6 kmh 29.87 in1011.5 mb 0.00 in0.0 mm 0.00 in0.0 mm 0.00 in0.0 mm
11:48 PM 79.4°F26.3°C 68.6°F20.3°C 69% Calm Calm 1.0 mph1.6 kmh 29.87 in1011.5 mb 0.00 in0.0 mm 0.00 in0.0 mm 0.00 in0.0 mm
11:53 PM 79.3°F26.3°C 68.7°F20.4°C 70% 1.0 mph ENE1.6 kmh ENE 1.0 mph1.6 kmh 29.87 in1011.5 mb 0.00 in0.0 mm 0.00 in0.0 mm 0.00 in0.0 mm
11:58 PM 79.1°F26.2°C 68.7°F20.4°C 70% 1.0 mph NE1.6 kmh NE 1.0 mph1.6 kmh 29.87 in1011.5 mb 0.00 in0.0 mm 0.00 in0.0 mm 0.00 in0.0 mm